Time;durP1;ratioP1;P1;durP2;ratioP2;P2;SDS_P1;SDS_P2;PMS_P1;PMS_P2;Temp;Humidity;BMP_temperature;BMP_pressure;BME280_temperature;BME280_humidity;BME280_pressure;Samples;Min_cycle;Max_cycle;Signal;HPM_P1;HPM_P2
2023/03/09 00:02:00;;;;;;;25.70;18.00;;;;;;;3.86;72.61;97973.27;107710;1251;60689;-42
2023/03/09 00:04:28;;;;;;;23.10;17.40;;;;;;;3.86;72.63;97962.84;107648;1250;60315;-42
2023/03/09 00:07:00;;;;;;;27.60;18.90;;;;;;;3.84;72.71;97956.67;107656;1251;74767;-41
2023/03/09 00:09:30;;;;;;;25.70;17.50;;;;;;;3.87;72.67;97946.70;107663;1251;70002;-42
2023/03/09 00:11:58;;;;;;;21.70;16.00;;;;;;;3.93;72.60;97939.02;107619;1251;73869;-41
2023/03/09 00:14:34;;;;;;;23.50;16.80;;;;;;;4.00;72.50;97933.27;107569;1250;61540;-41
2023/03/09 00:17:03;;;;;;;22.80;17.00;;;;;;;4.02;72.41;97923.27;107680;1251;61098;-42
2023/03/09 00:19:32;;;;;;;24.50;16.20;;;;;;;4.04;72.24;97916.11;107663;1251;75049;-41
2023/03/09 00:22:02;;;;;;;25.60;17.10;;;;;;;4.04;72.10;97908.45;106921;1251;1003076;-41
2023/03/09 00:24:31;;;;;;;22.90;16.60;;;;;;;4.05;72.07;97901.12;107697;1251;72395;-41
2023/03/09 00:27:03;;;;;;;20.90;15.60;;;;;;;4.05;71.91;97891.38;107673;1251;61598;-42
2023/03/09 00:29:32;;;;;;;22.30;15.50;;;;;;;4.10;71.74;97887.80;107668;1251;61278;-41
2023/03/09 00:32:04;;;;;;;19.50;15.20;;;;;;;4.20;71.53;97887.11;107707;1250;73661;-41
2023/03/09 00:34:34;;;;;;;21.40;15.00;;;;;;;4.26;71.09;97879.58;107698;1251;69728;-41
2023/03/09 00:37:04;;;;;;;23.70;15.50;;;;;;;4.28;70.93;97872.63;107685;1251;73511;-41
2023/03/09 00:39:33;;;;;;;21.20;16.30;;;;;;;4.29;70.81;97867.52;107724;1250;60636;-41
2023/03/09 00:42:02;;;;;;;21.70;14.40;;;;;;;4.28;70.83;97868.73;107711;1251;61262;-42
2023/03/09 00:44:32;;;;;;;21.90;15.90;;;;;;;4.28;70.93;97873.23;107696;1251;73697;-41
2023/03/09 00:47:00;;;;;;;19.00;14.00;;;;;;;4.27;70.96;97864.86;107703;1251;69733;-41
2023/03/09 00:49:29;;;;;;;19.80;14.60;;;;;;;4.30;71.07;97865.84;107697;1251;73821;-42
2023/03/09 00:51:57;;;;;;;19.10;14.00;;;;;;;4.39;70.90;97868.00;107704;1251;60566;-41
2023/03/09 00:54:26;;;;;;;21.50;14.20;;;;;;;4.44;70.87;97863.03;107730;1251;61542;-40
2023/03/09 00:56:54;;;;;;;20.20;13.60;;;;;;;4.45;71.00;97860.91;107692;1251;75032;-41
2023/03/09 00:59:23;;;;;;;20.90;14.90;;;;;;;4.48;70.95;97863.58;107743;1251;68607;-41
2023/03/09 01:01:51;;;;;;;18.10;13.50;;;;;;;4.50;70.99;97862.52;107657;1251;73886;-40
2023/03/09 01:04:21;;;;;;;21.20;15.00;;;;;;;4.50;71.08;97857.55;107699;1251;60184;-40
2023/03/09 01:06:53;;;;;;;19.00;13.70;;;;;;;4.50;71.07;97845.06;107712;1251;61490;-40
2023/03/09 01:09:22;;;;;;;17.50;12.70;;;;;;;4.54;70.97;97831.94;107827;1251;73697;-40
2023/03/09 01:11:51;;;;;;;19.40;13.80;;;;;;;4.61;70.88;97821.58;107715;1251;69741;-40
2023/03/09 01:14:19;;;;;;;18.10;12.60;;;;;;;4.62;71.00;97807.09;107592;1251;73915;-40
2023/03/09 01:16:48;;;;;;;19.70;12.70;;;;;;;4.60;71.36;97797.46;107610;1251;61559;-40
2023/03/09 01:19:16;;;;;;;19.20;12.90;;;;;;;4.59;71.35;97793.31;107572;1251;60446;-40
2023/03/09 01:21:46;;;;;;;12.60;9.30;;;;;;;4.58;71.41;97791.14;107648;1251;73725;-40
2023/03/09 01:24:15;;;;;;;17.70;12.20;;;;;;;4.55;71.50;97806.81;107650;1251;69216;-40
2023/03/09 01:26:44;;;;;;;17.80;11.90;;;;;;;4.52;71.58;97809.21;107621;1251;73615;-40
2023/03/09 01:29:12;;;;;;;15.80;10.90;;;;;;;4.54;71.61;97806.71;107558;1251;62191;-41
2023/03/09 01:31:41;;;;;;;17.90;12.20;;;;;;;4.60;71.49;97800.23;107711;1251;61298;-41
2023/03/09 01:34:12;;;;;;;16.20;11.80;;;;;;;4.63;71.33;97797.83;107714;1251;75003;-41
2023/03/09 01:36:41;;;;;;;15.80;11.40;;;;;;;4.57;71.26;97784.68;107705;1251;69921;-40
2023/03/09 01:39:11;;;;;;;17.60;12.20;;;;;;;4.65;71.27;97795.31;107666;1251;72864;-40
2023/03/09 01:41:40;;;;;;;16.90;12.50;;;;;;;4.64;71.18;97797.52;107706;1251;60907;-41
2023/03/09 01:44:12;;;;;;;17.20;11.50;;;;;;;4.61;71.32;97795.48;107684;1251;60499;-40
2023/03/09 01:46:53;;;;;;;16.00;11.40;;;;;;;4.65;71.26;97801.39;107668;1251;75049;-41
2023/03/09 01:49:29;;;;;;;17.20;12.60;;;;;;;4.72;71.04;97802.42;107621;1255;69874;-40
2023/03/09 01:52:16;;;;;;;18.60;12.60;;;;;;;4.70;70.90;97802.30;107631;1251;73083;-40
2023/03/09 01:54:58;;;;;;;15.00;12.00;;;;;;;4.68;70.97;97799.13;107597;1251;60784;-40
2023/03/09 01:57:41;;;;;;;17.80;13.70;;;;;;;4.63;71.14;97789.31;107724;1255;60389;-40
2023/03/09 02:00:15;;;;;;;19.90;13.40;;;;;;;4.60;71.26;97786.89;107706;1251;75025;-40
2023/03/09 02:02:50;;;;;;;16.90;12.40;;;;;;;4.59;71.32;97787.09;107706;1251;69317;-40
2023/03/09 02:05:26;;;;;;;18.70;12.60;;;;;;;4.64;71.27;97784.80;107716;1251;73497;-40
2023/03/09 02:07:55;;;;;;;16.40;12.10;;;;;;;4.73;71.04;97785.48;107741;1251;61143;-40
2023/03/09 02:10:35;;;;;;;16.80;12.70;;;;;;;4.74;70.98;97784.05;107589;1251;61196;-40
2023/03/09 02:13:09;;;;;;;17.20;12.40;;;;;;;4.74;71.03;97782.52;107766;1251;75026;-40
2023/03/09 02:15:38;;;;;;;17.60;13.30;;;;;;;4.74;71.14;97781.51;107709;1251;69619;-40
2023/03/09 02:18:07;;;;;;;18.70;13.20;;;;;;;4.73;70.99;97781.12;107744;1251;72687;-40
2023/03/09 02:21:17;;;;;;;13.50;8.80;;;;;;;4.72;71.07;97781.33;107699;1251;62347;-40
2023/03/09 02:23:48;;;;;;;16.50;11.60;;;;;;;4.77;70.97;97782.56;107744;1253;61226;-40
2023/03/09 02:26:37;;;;;;;17.50;12.40;;;;;;;4.79;70.96;97780.67;107733;1251;75030;-40
2023/03/09 02:29:10;;;;;;;18.60;12.60;;;;;;;4.79;70.93;97774.86;107689;1251;69812;-40
2023/03/09 02:31:40;;;;;;;18.20;12.80;;;;;;;4.78;70.93;97769.70;107714;1251;73517;-40
2023/03/09 02:34:10;;;;;;;19.60;13.60;;;;;;;4.78;70.86;97765.25;107705;1251;60550;-40
2023/03/09 02:36:39;;;;;;;20.00;13.80;;;;;;;4.79;70.91;97765.80;107729;1251;61192;-40
2023/03/09 02:39:18;;;;;;;18.50;12.30;;;;;;;4.79;70.93;97770.16;107696;1251;74943;-40
2023/03/09 02:41:48;;;;;;;18.30;12.60;;;;;;;4.84;70.86;97770.02;107694;1251;69936;-40
2023/03/09 02:44:20;;;;;;;19.10;13.00;;;;;;;4.88;70.83;97776.98;107701;1251;73915;-40
2023/03/09 02:46:49;;;;;;;19.30;13.40;;;;;;;4.89;70.61;97774.69;107715;1251;60408;-40
2023/03/09 02:49:18;;;;;;;18.90;13.30;;;;;;;4.87;70.75;97778.05;107619;1251;60431;-40
2023/03/09 02:51:46;;;;;;;19.30;13.60;;;;;;;4.85;70.80;97776.93;107644;1251;75156;-40
2023/03/09 02:54:17;;;;;;;19.70;13.40;;;;;;;4.85;70.87;97778.54;107601;1251;69918;-40
2023/03/09 02:56:46;;;;;;;19.60;12.70;;;;;;;4.87;70.99;97774.45;107546;1255;73881;-40
2023/03/09 02:59:14;;;;;;;17.70;12.80;;;;;;;4.93;71.20;97774.38;107745;1254;61363;-40
2023/03/09 03:01:54;;;;;;;18.60;13.10;;;;;;;4.96;71.30;97779.94;107674;1251;60522;-40
2023/03/09 03:04:23;;;;;;;20.80;14.40;;;;;;;4.93;71.51;97780.13;107797;1251;75251;-40
2023/03/09 03:06:52;;;;;;;20.30;14.00;;;;;;;4.92;71.70;97778.11;107785;1251;69942;-40
2023/03/09 03:09:21;;;;;;;19.00;13.00;;;;;;;4.92;71.78;97770.67;107713;1251;73801;-41
2023/03/09 03:11:52;;;;;;;20.60;13.40;;;;;;;4.95;71.87;97769.89;107732;1251;62382;-40
2023/03/09 03:14:21;;;;;;;21.90;13.60;;;;;;;5.03;71.77;97770.61;107735;1251;61262;-40
2023/03/09 03:16:50;;;;;;;16.90;12.60;;;;;;;5.05;71.59;97770.95;107668;1251;74870;-40
2023/03/09 03:19:21;;;;;;;20.30;13.70;;;;;;;5.03;71.58;97776.75;107702;1251;69587;-40
2023/03/09 03:21:49;;;;;;;19.90;14.20;;;;;;;5.01;71.72;97771.11;107679;1251;73533;-40
2023/03/09 03:24:18;;;;;;;20.70;13.90;;;;;;;4.97;71.89;97776.81;107662;1251;60610;-40
2023/03/09 03:26:47;;;;;;;19.70;13.10;;;;;;;4.93;72.05;97772.85;107665;1251;61245;-40
2023/03/09 03:29:18;;;;;;;18.90;13.00;;;;;;;4.95;72.05;97768.64;107692;1251;74797;-40
2023/03/09 03:31:47;;;;;;;18.60;12.90;;;;;;;4.98;71.88;97763.16;107662;1251;69616;-40
2023/03/09 03:34:16;;;;;;;18.80;13.20;;;;;;;4.97;71.91;97761.39;107708;1251;73522;-40
2023/03/09 03:36:50;;;;;;;18.80;14.00;;;;;;;4.95;71.91;97755.98;107684;1251;60684;-40
2023/03/09 03:39:20;;;;;;;;;;;;;;;4.91;71.93;97752.24;107635;1251;60671;-41
2023/03/09 03:41:49;;;;;;;19.10;12.90;;;;;;;4.83;72.25;97755.04;107625;1251;72819;-40
2023/03/09 03:44:19;;;;;;;20.80;13.30;;;;;;;4.78;72.50;97752.98;107636;1251;68854;-40
2023/03/09 03:46:48;;;;;;;19.70;13.20;;;;;;;4.84;72.33;97745.55;107756;1251;72672;-40
2023/03/09 03:49:18;;;;;;;18.60;13.10;;;;;;;4.89;72.27;97729.04;107722;1256;60425;-40
2023/03/09 03:51:47;;;;;;;19.90;13.60;;;;;;;4.90;72.19;97723.77;107666;1251;60306;-40
2023/03/09 03:54:15;;;;;;;20.80;14.70;;;;;;;4.91;72.23;97718.70;107682;1251;74840;-40
2023/03/09 03:56:44;;;;;;;20.90;13.80;;;;;;;4.91;72.01;97719.88;107737;1251;69642;-40
2023/03/09 03:59:15;;;;;;;19.10;13.00;;;;;;;4.90;72.07;97719.16;107726;1251;73833;-40
2023/03/09 04:01:44;;;;;;;19.50;12.80;;;;;;;4.93;71.90;97720.58;107590;1256;62355;-40
2023/03/09 04:04:12;;;;;;;19.90;13.20;;;;;;;4.98;71.86;97720.96;107641;1251;61180;-40
2023/03/09 04:06:47;;;;;;;17.10;13.50;;;;;;;4.97;71.77;97713.91;107621;1251;75091;-40
2023/03/09 04:09:18;;;;;;;18.20;13.40;;;;;;;4.97;71.92;97708.39;107593;1251;69730;-41
2023/03/09 04:11:47;;;;;;;21.30;14.80;;;;;;;4.97;71.75;97697.41;107662;1255;74060;-41
2023/03/09 04:14:15;;;;;;;19.10;12.70;;;;;;;4.97;71.77;97703.70;107717;1254;62362;-40
2023/03/09 04:16:44;;;;;;;16.80;12.20;;;;;;;5.00;71.80;97700.89;107710;1251;61227;-42
2023/03/09 04:19:12;;;;;;;18.70;13.40;;;;;;;5.05;71.61;97699.05;107690;1251;75120;-41
2023/03/09 04:21:43;;;;;;;18.10;13.40;;;;;;;5.07;71.60;97694.02;107667;1251;69771;-41
2023/03/09 04:24:14;;;;;;;22.60;14.50;;;;;;;5.08;71.58;97691.17;107675;1251;73674;-41
2023/03/09 04:26:42;;;;;;;21.00;14.20;;;;;;;5.08;71.53;97678.45;107705;1256;60563;-41
2023/03/09 04:29:33;;;;;;;18.90;13.90;;;;;;;5.07;71.60;97668.91;107657;1251;61708;-41
2023/03/09 04:32:02;;;;;;;18.90;13.70;;;;;;;5.05;71.72;97664.59;107704;1256;74777;-41
2023/03/09 04:34:31;;;;;;;18.20;13.60;;;;;;;5.10;71.63;97651.23;107757;1255;69631;-42
2023/03/09 04:37:00;;;;;;;18.90;12.90;;;;;;;5.18;71.68;97651.10;107707;1251;73857;-41
2023/03/09 04:39:29;;;;;;;18.80;13.50;;;;;;;5.23;71.63;97639.73;107739;1251;60369;-42
2023/03/09 04:41:58;;;;;;;19.80;13.90;;;;;;;5.26;71.65;97633.99;107808;1251;60359;-42
2023/03/09 04:44:27;;;;;;;19.70;14.10;;;;;;;5.25;71.82;97628.70;107676;1251;73427;-41
2023/03/09 04:46:56;;;;;;;19.90;14.70;;;;;;;5.21;71.85;97619.67;107746;1251;68817;-41
2023/03/09 04:49:26;;;;;;;18.30;12.60;;;;;;;5.16;72.05;97611.63;107697;1251;71964;-42
2023/03/09 04:51:55;;;;;;;17.80;12.30;;;;;;;5.20;72.12;97610.36;107699;1251;62013;-41
2023/03/09 04:54:24;;;;;;;17.90;12.40;;;;;;;5.26;72.13;97606.30;107801;1251;61176;-41
2023/03/09 04:56:53;;;;;;;18.90;14.00;;;;;;;5.28;72.21;97601.33;107707;1251;74793;-41
2023/03/09 04:59:24;;;;;;;17.70;13.30;;;;;;;5.28;72.24;97592.11;107643;1251;69711;-41
2023/03/09 05:01:53;;;;;;;17.80;13.10;;;;;;;5.27;72.27;97585.65;107553;1251;73557;-42
2023/03/09 05:04:25;;;;;;;17.80;12.80;;;;;;;5.28;72.43;97584.20;103854;1251;1003846;-41
2023/03/09 05:06:56;;;;;;;17.40;12.90;;;;;;;5.34;72.59;97587.34;107631;1251;61497;-41
2023/03/09 05:09:26;;;;;;;19.30;12.60;;;;;;;5.41;72.52;97587.35;107598;1251;74892;-41
2023/03/09 05:11:56;;;;;;;;;;;;;;;5.46;72.49;97592.30;107618;1252;71239;-41
2023/03/09 05:14:28;;;;;;;19.60;13.10;;;;;;;5.41;72.68;97581.35;107785;1251;74770;-41
2023/03/09 05:16:56;;;;;;;19.20;13.10;;;;;;;5.37;72.88;97587.08;107730;1251;60768;-41
2023/03/09 05:19:27;;;;;;;15.90;12.20;;;;;;;5.39;72.98;97583.34;107694;1251;60389;-41
2023/03/09 05:21:59;;;;;;;17.80;12.80;;;;;;;5.45;72.86;97583.84;107675;1251;74452;-42
2023/03/09 05:24:28;;;;;;;18.10;12.60;;;;;;;5.52;72.82;97587.23;107708;1251;69935;-41
2023/03/09 05:26:56;;;;;;;16.90;12.10;;;;;;;5.54;72.73;97584.71;107701;1251;73549;-41
2023/03/09 05:29:29;;;;;;;18.20;13.10;;;;;;;5.53;72.73;97583.85;107654;1251;61598;-42
2023/03/09 05:31:58;;;;;;;18.20;13.30;;;;;;;5.52;72.72;97582.23;107686;1256;61534;-41
2023/03/09 05:34:34;;;;;;;17.10;12.40;;;;;;;5.50;73.06;97583.14;107692;1251;74826;-41
2023/03/09 05:37:04;;;;;;;;;;;;;;;5.53;73.12;97578.41;107793;1251;70630;-41
2023/03/09 05:39:36;;;;;;;16.80;12.30;;;;;;;5.54;73.22;97574.88;107688;1252;73855;-41
2023/03/09 05:42:05;;;;;;;16.90;13.00;;;;;;;5.51;73.25;97585.61;107713;1250;60283;-42
2023/03/09 05:44:36;;;;;;;17.80;12.60;;;;;;;5.56;73.21;97577.20;107719;1251;60264;-41
2023/03/09 05:47:06;;;;;;;17.50;12.60;;;;;;;5.59;73.03;97571.87;107709;1251;74885;-41
2023/03/09 05:49:35;;;;;;;17.30;12.00;;;;;;;5.66;72.92;97579.45;107680;1251;69499;-41
2023/03/09 05:52:03;;;;;;;17.20;12.40;;;;;;;5.73;72.72;97581.91;107775;1251;73861;-41
2023/03/09 05:54:34;;;;;;;17.80;12.60;;;;;;;5.77;72.83;97584.31;107680;1251;61161;-41
2023/03/09 05:57:09;;;;;;;17.10;13.00;;;;;;;5.79;72.54;97584.64;107388;1252;275509;-41
2023/03/09 06:01:26;;;;;;;17.90;12.40;;;;;;;5.84;72.64;97581.08;104878;1287;600756;-39
2023/03/09 06:04:02;;;;;;;17.20;11.90;;;;;;;5.90;72.55;97582.68;106683;1267;60115;-39
2023/03/09 06:06:32;;;;;;;18.90;14.60;;;;;;;5.97;72.27;97582.36;106674;1264;61233;-40
2023/03/09 06:09:00;;;;;;;17.70;13.20;;;;;;;6.03;72.29;97585.89;106604;1264;73555;-40
2023/03/09 06:11:29;;;;;;;18.60;13.00;;;;;;;6.08;72.13;97577.92;106769;1269;68202;-40
2023/03/09 06:13:58;;;;;;;17.00;12.20;;;;;;;6.12;71.92;97577.19;106587;1264;167791;-41
2023/03/09 06:16:34;;;;;;;16.20;11.40;;;;;;;6.20;71.84;97568.40;106825;1266;62140;-40
2023/03/09 06:19:03;;;;;;;17.40;11.60;;;;;;;6.31;71.70;97568.02;106932;1264;59249;-40
2023/03/09 06:21:35;;;;;;;23.80;17.00;;;;;;;6.37;71.58;97568.36;106842;1266;73411;-40
2023/03/09 06:24:04;;;;;;;17.40;13.70;;;;;;;6.44;71.47;97575.02;106848;1267;69776;-40
2023/03/09 06:26:33;;;;;;;;;;;;;;;6.49;71.33;97573.83;106893;1262;74685;-40
2023/03/09 06:29:05;;;;;;;16.90;12.80;;;;;;;6.49;71.24;97570.29;106931;1264;60564;-40
2023/03/09 06:31:37;;;;;;;18.90;12.80;;;;;;;6.54;71.05;97573.31;106821;1264;61444;-40
2023/03/09 06:34:06;;;;;;;17.70;12.90;;;;;;;6.67;70.78;97572.85;106862;1264;74654;-40
2023/03/09 06:36:40;;;;;;;16.10;11.20;;;;;;;6.76;70.42;97569.66;106829;1264;69871;-40
2023/03/09 06:39:09;;;;;;;19.70;15.00;;;;;;;6.81;70.17;97571.62;106891;1264;72361;-40
2023/03/09 06:41:39;;;;;;;25.90;17.80;;;;;;;6.85;70.28;97571.41;106859;1263;61290;-40
2023/03/09 06:44:12;;;;;;;20.00;15.20;;;;;;;6.88;70.27;97569.11;106866;1262;61391;-40
2023/03/09 06:46:43;;;;;;;18.60;13.60;;;;;;;6.96;70.24;97571.14;106842;1264;72121;-40
2023/03/09 06:49:12;;;;;;;13.30;10.40;;;;;;;7.10;69.61;97572.73;106818;1266;69899;-40
2023/03/09 06:51:42;;;;;;;14.10;10.60;;;;;;;7.17;69.43;97569.52;106741;1264;72339;-40
2023/03/09 06:54:17;;;;;;;19.60;13.90;;;;;;;7.20;69.39;97571.45;106747;1263;61442;-40
2023/03/09 06:56:52;;;;;;;20.10;11.70;;;;;;;7.25;69.32;97565.46;106765;1264;61244;-40
2023/03/09 06:59:21;;;;;;;20.30;13.70;;;;;;;7.29;68.92;97564.34;106792;1264;73350;-40
2023/03/09 07:01:49;;;;;;;13.20;10.10;;;;;;;7.38;69.01;97564.12;106883;1264;69414;-40
2023/03/09 07:04:18;;;;;;;19.70;14.30;;;;;;;7.49;68.45;97565.15;106861;1264;73843;-40
2023/03/09 07:06:47;;;;;;;12.30;8.70;;;;;;;7.54;68.23;97558.92;106834;1264;61042;-40
2023/03/09 07:09:16;;;;;;;19.00;15.20;;;;;;;7.56;68.10;97553.99;106883;1264;61454;-40
2023/03/09 07:11:48;;;;;;;14.70;10.70;;;;;;;7.58;68.18;97558.77;106820;1263;74607;-40
2023/03/09 07:14:18;;;;;;;17.60;11.40;;;;;;;7.61;68.03;97558.55;106855;1264;69777;-40
2023/03/09 07:16:54;;;;;;;19.50;11.10;;;;;;;7.66;67.87;97557.23;106838;1264;73824;-40
2023/03/09 07:19:22;;;;;;;17.90;12.60;;;;;;;7.78;67.73;97556.40;106894;1262;61236;-40
2023/03/09 07:21:53;;;;;;;20.50;15.60;;;;;;;7.88;67.31;97554.95;106837;1263;61302;-40
2023/03/09 07:24:22;;;;;;;30.40;24.10;;;;;;;7.92;66.80;97559.12;106837;1263;73208;-40
2023/03/09 07:26:51;;;;;;;21.60;16.80;;;;;;;7.96;66.85;97557.42;106840;1263;69808;-40
2023/03/09 07:29:19;;;;;;;15.70;11.70;;;;;;;7.97;67.03;97561.05;106742;1263;73866;-40
2023/03/09 07:31:49;;;;;;;26.50;19.60;;;;;;;7.99;67.11;97560.73;106788;1266;63066;-40
2023/03/09 07:34:19;;;;;;;24.20;18.30;;;;;;;8.08;67.28;97556.64;106868;1266;61580;-40
2023/03/09 07:36:48;;;;;;;13.00;10.10;;;;;;;8.15;66.95;97567.76;106862;1263;74240;-40
2023/03/09 07:39:16;;;;;;;16.00;13.50;;;;;;;8.19;66.81;97566.44;106910;1266;68270;-40
2023/03/09 07:41:46;;;;;;;13.10;10.00;;;;;;;8.23;66.73;97569.52;106843;1266;73917;-40
2023/03/09 07:44:15;;;;;;;;;;;;;;;8.27;66.52;97567.28;106883;1262;61645;-41
2023/03/09 07:46:43;;;;;;;20.80;13.70;;;;;;;8.25;66.64;97570.52;106964;1263;61173;-41
2023/03/09 07:49:14;;;;;;;14.60;11.00;;;;;;;8.28;66.64;97569.90;106788;1264;73484;-41
2023/03/09 07:51:43;;;;;;;14.90;10.70;;;;;;;8.42;65.68;97563.66;106745;1266;70175;-40
2023/03/09 07:54:11;;;;;;;24.80;16.90;;;;;;;8.51;65.54;97561.25;106777;1263;72856;-40
2023/03/09 07:56:42;;;;;;;17.10;11.90;;;;;;;8.57;65.62;97555.61;106756;1264;60586;-40
2023/03/09 07:59:15;;;;;;;15.30;11.80;;;;;;;8.66;64.70;97555.59;106784;1263;61209;-41
2023/03/09 08:01:43;;;;;;;13.40;10.40;;;;;;;8.75;64.60;97558.19;106761;1263;74268;-40
2023/03/09 08:04:13;;;;;;;10.80;8.60;;;;;;;8.82;64.34;97551.91;106742;1263;69906;-40
2023/03/09 08:06:41;;;;;;;13.40;10.00;;;;;;;8.89;63.93;97546.33;106758;1264;74299;-40
2023/03/09 08:09:14;;;;;;;10.90;8.50;;;;;;;9.01;63.97;97550.30;106806;1263;61664;-40
2023/03/09 08:11:43;;;;;;;13.50;10.10;;;;;;;9.10;64.40;97551.33;106875;1266;60284;-40
2023/03/09 08:14:13;;;;;;;13.30;9.60;;;;;;;9.18;64.08;97551.30;107044;1260;73920;-40
2023/03/09 08:16:41;;;;;;;16.50;12.00;;;;;;;9.28;63.08;97546.30;107087;1261;69946;-41
2023/03/09 08:19:10;;;;;;;14.10;8.60;;;;;;;9.38;63.34;97541.23;107418;1257;73781;-40
2023/03/09 08:21:39;;;;;;;16.00;11.30;;;;;;;9.54;63.10;97539.04;107474;1257;61434;-40
2023/03/09 08:24:08;;;;;;;18.30;15.50;;;;;;;9.74;62.43;97540.52;107449;1257;61493;-41
2023/03/09 08:26:38;;;;;;;14.70;11.00;;;;;;;10.00;62.01;97545.75;107478;1256;74344;-41
2023/03/09 08:29:07;;;;;;;12.90;10.60;;;;;;;10.19;62.00;97545.53;107488;1257;68675;-40
2023/03/09 08:31:36;;;;;;;10.90;7.90;;;;;;;10.38;60.50;97549.54;107502;1257;73957;-40
2023/03/09 08:34:08;;;;;;;9.40;6.50;;;;;;;10.59;59.77;97541.44;107465;1259;61341;-41
2023/03/09 08:36:36;;;;;;;15.20;8.70;;;;;;;10.72;58.87;97535.02;107397;1257;61545;-41
2023/03/09 08:39:05;;;;;;;9.80;7.20;;;;;;;10.73;58.07;97538.58;107315;1257;74222;-40
2023/03/09 08:41:34;;;;;;;8.90;7.10;;;;;;;10.65;58.23;97537.80;107353;1257;69953;-41
2023/03/09 08:44:04;;;;;;;10.00;7.00;;;;;;;10.54;58.33;97542.41;107417;1254;74005;-40
2023/03/09 08:46:33;;;;;;;9.40;7.10;;;;;;;10.45;58.72;97548.16;107360;1256;60182;-41
2023/03/09 08:49:07;;;;;;;9.40;6.50;;;;;;;10.40;59.17;97545.89;107339;1256;61483;-41
2023/03/09 08:51:36;;;;;;;10.70;8.10;;;;;;;10.37;58.88;97552.96;107376;1254;73894;-41
2023/03/09 08:54:05;;;;;;;14.20;8.40;;;;;;;10.33;59.31;97553.38;107482;1259;69914;-40
2023/03/09 08:56:33;;;;;;;11.30;8.00;;;;;;;10.32;59.44;97553.47;107466;1257;72075;-41
2023/03/09 08:59:02;;;;;;;12.70;8.00;;;;;;;10.33;59.40;97549.83;107411;1258;61585;-41
2023/03/09 09:01:31;;;;;;;13.40;7.60;;;;;;;10.34;59.77;97554.77;107430;1256;60290;-41
2023/03/09 09:03:59;;;;;;;12.10;8.00;;;;;;;10.36;59.97;97557.93;107343;1259;73201;-41
2023/03/09 09:06:28;;;;;;;12.00;8.60;;;;;;;10.37;60.04;97555.74;107404;1257;68908;-41
2023/03/09 09:08:58;;;;;;;11.00;8.20;;;;;;;10.37;59.84;97558.60;107438;1256;73469;-40
2023/03/09 09:11:26;;;;;;;12.00;8.00;;;;;;;10.38;59.90;97559.77;107536;1256;61499;-40
2023/03/09 09:13:55;;;;;;;16.60;8.50;;;;;;;10.39;60.54;97557.52;107492;1255;61555;-40
2023/03/09 09:16:23;;;;;;;11.00;7.80;;;;;;;10.44;60.49;97560.55;107498;1257;73037;-40
2023/03/09 09:18:52;;;;;;;7.50;6.10;;;;;;;10.54;60.46;97561.00;107480;1257;69917;-40
2023/03/09 09:21:22;;;;;;;12.70;9.60;;;;;;;10.59;59.66;97560.78;107396;1257;73541;-40
2023/03/09 09:23:51;;;;;;;13.00;7.90;;;;;;;10.62;59.90;97558.30;107346;1257;61022;-41
2023/03/09 09:26:20;;;;;;;8.20;6.10;;;;;;;10.65;59.98;97560.34;107453;1257;61516;-40
2023/03/09 09:28:51;;;;;;;9.40;7.00;;;;;;;10.70;60.12;97561.07;107443;1257;74245;-40
2023/03/09 09:31:23;;;;;;;15.90;12.70;;;;;;;10.73;60.15;97560.65;107420;1257;70401;-40
2023/03/09 09:33:54;;;;;;;13.30;9.40;;;;;;;10.75;59.76;97558.38;107350;1257;71840;-41
2023/03/09 09:36:24;;;;;;;13.60;12.20;;;;;;;10.77;59.20;97553.24;107363;1257;61660;-41
2023/03/09 09:38:53;;;;;;;;;;;;;;;10.78;59.39;97554.31;107434;1255;59484;-41
2023/03/09 09:41:24;;;;;;;8.00;6.40;;;;;;;10.76;59.77;97553.65;107372;1259;73117;-41
2023/03/09 09:43:58;;;;;;;10.70;8.30;;;;;;;10.74;59.49;97556.38;107457;1257;69698;-41
2023/03/09 09:46:27;;;;;;;10.80;8.10;;;;;;;10.78;59.79;97557.64;107488;1257;72452;-41
2023/03/09 09:48:56;;;;;;;8.20;6.30;;;;;;;10.81;59.78;97554.05;107449;1255;61510;-41
2023/03/09 09:51:45;;;;;;;9.10;6.50;;;;;;;10.83;59.29;97554.34;107289;1256;61338;-41
2023/03/09 09:54:25;;;;;;;10.90;7.80;;;;;;;10.83;59.42;97550.61;107449;1257;74283;-41
2023/03/09 09:57:13;;;;;;;35.20;31.30;;;;;;;10.81;59.19;97548.17;107366;1257;70191;-41
2023/03/09 10:00:10;;;;;;;14.80;11.10;;;;;;;10.80;59.61;97543.69;107372;1257;74318;-41
2023/03/09 10:03:13;;;;;;;13.50;7.90;;;;;;;10.79;59.66;97541.70;107397;1255;61277;-41
2023/03/09 10:06:03;;;;;;;14.20;11.30;;;;;;;10.78;59.43;97538.99;107403;1255;61169;-41
2023/03/09 10:08:36;;;;;;;16.20;10.00;;;;;;;10.80;59.51;97535.94;107444;1257;74118;-41
2023/03/09 10:11:25;;;;;;;13.70;10.80;;;;;;;10.86;59.64;97535.41;107485;1259;68525;-41
2023/03/09 10:14:18;;;;;;;22.60;15.70;;;;;;;10.97;59.62;97535.35;107337;1255;73597;-41
2023/03/09 10:16:55;;;;;;;26.80;20.90;;;;;;;11.05;59.41;97526.96;107323;1257;61544;-40
2023/03/09 10:19:38;;;;;;;12.90;9.50;;;;;;;11.09;58.90;97523.43;107453;1257;61203;-40
2023/03/09 10:22:16;;;;;;;12.90;8.20;;;;;;;11.10;58.51;97519.30;107450;1256;75045;-40
2023/03/09 10:24:50;;;;;;;12.30;9.20;;;;;;;11.06;58.07;97517.11;107288;1256;69899;-40
2023/03/09 10:27:40;;;;;;;13.20;10.20;;;;;;;11.02;58.07;97514.46;107520;1257;73602;-40
2023/03/09 10:30:10;;;;;;;14.60;11.90;;;;;;;10.96;58.14;97507.48;107465;1254;60843;-40
2023/03/09 10:32:40;;;;;;;15.70;11.60;;;;;;;10.83;58.64;97491.38;107463;1258;61535;-40
2023/03/09 10:35:31;;;;;;;13.70;9.80;;;;;;;10.89;58.70;97507.09;107477;1257;75084;-40
2023/03/09 10:38:00;;;;;;;9.50;6.70;;;;;;;10.90;58.60;97504.30;107476;1255;70038;-41
2023/03/09 10:40:36;;;;;;;15.50;11.80;;;;;;;10.90;58.71;97502.67;107484;1257;73910;-40
2023/03/09 10:43:04;;;;;;;14.10;9.90;;;;;;;10.95;58.92;97500.91;107477;1257;61464;-41
2023/03/09 10:45:33;;;;;;;13.10;9.00;;;;;;;11.03;58.97;97501.73;107406;1255;61474;-40
2023/03/09 10:48:05;;;;;;;10.70;8.10;;;;;;;11.13;58.75;97503.63;107318;1254;75035;-40
2023/03/09 10:50:40;;;;;;;11.50;7.40;;;;;;;11.23;58.65;97504.41;107288;1254;68736;-40
2023/03/09 10:53:28;;;;;;;16.50;11.00;;;;;;;11.33;58.30;97500.48;107349;1254;73817;-41
2023/03/09 10:56:02;;;;;;;12.40;8.40;;;;;;;11.43;57.99;97497.70;107426;1254;60393;-41
2023/03/09 10:58:37;;;;;;;13.10;8.80;;;;;;;11.50;57.87;97497.06;107333;1255;61014;-40
2023/03/09 11:01:11;;;;;;;15.50;10.40;;;;;;;11.56;57.05;97493.94;107347;1254;75047;-40
2023/03/09 11:03:45;;;;;;;8.80;6.30;;;;;;;11.61;56.86;97492.54;107335;1254;69959;-40
2023/03/09 11:06:24;;;;;;;14.10;8.70;;;;;;;11.65;56.76;97487.35;107368;1254;73820;-41
2023/03/09 11:09:14;;;;;;;14.90;8.40;;;;;;;11.70;56.65;97485.83;107440;1257;61577;-40
2023/03/09 11:11:48;;;;;;;53.80;36.80;;;;;;;11.74;56.68;97483.30;107464;1254;61530;-40
2023/03/09 11:14:31;;;;;;;27.80;18.30;;;;;;;11.78;56.91;97474.79;107518;1255;74690;-40
2023/03/09 11:17:00;;;;;;;38.10;26.60;;;;;;;11.85;57.00;97470.10;107496;1255;68736;-41
2023/03/09 11:19:32;;;;;;;97.90;76.70;;;;;;;11.90;56.57;97463.56;107317;1254;73330;-40
2023/03/09 11:22:05;;;;;;;39.00;32.40;;;;;;;11.96;56.38;97461.69;107357;1257;60347;-40
2023/03/09 11:24:44;;;;;;;28.00;24.00;;;;;;;12.01;56.38;97457.33;107354;1256;61512;-40
2023/03/09 11:27:25;;;;;;;13.40;11.20;;;;;;;12.09;56.51;97456.17;107297;1254;73218;-40
2023/03/09 11:30:02;;;;;;;26.10;20.20;;;;;;;12.21;56.12;97449.99;107381;1259;69645;-40
2023/03/09 11:32:31;;;;;;;18.00;13.20;;;;;;;12.36;55.75;97443.02;107416;1255;72844;-40
2023/03/09 11:35:00;;;;;;;10.20;7.90;;;;;;;12.54;55.72;97440.11;107438;1257;61693;-41
2023/03/09 11:38:05;;;;;;;22.80;17.00;;;;;;;12.70;55.24;97436.37;107430;1254;60536;-40
2023/03/09 11:40:35;;;;;;;16.30;13.50;;;;;;;12.81;55.02;97430.48;107487;1258;75058;-40
2023/03/09 11:43:26;;;;;;;17.20;13.40;;;;;;;12.83;54.85;97430.13;107358;1256;67655;-40